sensor_id;sensor_type;location;lat;lon;timestamp;P1;durP1;ratioP1;P2;durP2;ratioP2
10248;SDS011;5169;50.560;9.714;2023-05-07T00:00:41;36.43;;;33.80;;
10248;SDS011;5169;50.560;9.714;2023-05-07T00:03:07;38.90;;;36.10;;
10248;SDS011;5169;50.560;9.714;2023-05-07T00:05:33;41.10;;;38.10;;
10248;SDS011;5169;50.560;9.714;2023-05-07T00:07:58;32.83;;;30.60;;
10248;SDS011;5169;50.560;9.714;2023-05-07T00:10:26;41.50;;;38.43;;
10248;SDS011;5169;50.560;9.714;2023-05-07T00:12:52;40.23;;;37.27;;
10248;SDS011;5169;50.560;9.714;2023-05-07T00:15:17;35.60;;;32.90;;
10248;SDS011;5169;50.560;9.714;2023-05-07T00:17:45;31.50;;;29.37;;
10248;SDS011;5169;50.560;9.714;2023-05-07T00:20:11;42.37;;;39.17;;
10248;SDS011;5169;50.560;9.714;2023-05-07T00:22:39;34.17;;;31.87;;
10248;SDS011;5169;50.560;9.714;2023-05-07T00:25:07;38.80;;;36.07;;
10248;SDS011;5169;50.560;9.714;2023-05-07T00:27:33;42.40;;;39.03;;
10248;SDS011;5169;50.560;9.714;2023-05-07T00:30:01;40.33;;;37.27;;
10248;SDS011;5169;50.560;9.714;2023-05-07T00:32:26;40.50;;;37.50;;
10248;SDS011;5169;50.560;9.714;2023-05-07T00:34:52;37.30;;;34.77;;
10248;SDS011;5169;50.560;9.714;2023-05-07T00:37:17;38.23;;;35.50;;
10248;SDS011;5169;50.560;9.714;2023-05-07T00:39:43;39.93;;;36.93;;
10248;SDS011;5169;50.560;9.714;2023-05-07T00:42:08;40.00;;;37.17;;
10248;SDS011;5169;50.560;9.714;2023-05-07T00:44:34;36.70;;;34.07;;
10248;SDS011;5169;50.560;9.714;2023-05-07T00:47:03;38.53;;;35.70;;
10248;SDS011;5169;50.560;9.714;2023-05-07T00:49:35;41.10;;;38.13;;
10248;SDS011;5169;50.560;9.714;2023-05-07T00:52:04;33.97;;;31.60;;
10248;SDS011;5169;50.560;9.714;2023-05-07T00:54:31;29.63;;;27.70;;
10248;SDS011;5169;50.560;9.714;2023-05-07T00:56:58;33.90;;;31.57;;
10248;SDS011;5169;50.560;9.714;2023-05-07T00:59:24;28.43;;;26.50;;
10248;SDS011;5169;50.560;9.714;2023-05-07T01:01:52;35.47;;;32.93;;
10248;SDS011;5169;50.560;9.714;2023-05-07T01:04:19;32.90;;;30.67;;
10248;SDS011;5169;50.560;9.714;2023-05-07T01:06:45;34.10;;;31.73;;
10248;SDS011;5169;50.560;9.714;2023-05-07T01:09:11;31.70;;;29.63;;
10248;SDS011;5169;50.560;9.714;2023-05-07T01:11:37;32.20;;;29.80;;
10248;SDS011;5169;50.560;9.714;2023-05-07T01:14:07;33.70;;;31.37;;
10248;SDS011;5169;50.560;9.714;2023-05-07T01:16:34;40.30;;;37.37;;
10248;SDS011;5169;50.560;9.714;2023-05-07T01:19:00;36.17;;;33.40;;
10248;SDS011;5169;50.560;9.714;2023-05-07T01:21:26;42.77;;;39.40;;
10248;SDS011;5169;50.560;9.714;2023-05-07T01:23:53;42.53;;;39.30;;
10248;SDS011;5169;50.560;9.714;2023-05-07T01:26:22;41.57;;;38.37;;
10248;SDS011;5169;50.560;9.714;2023-05-07T01:28:48;37.67;;;34.87;;
10248;SDS011;5169;50.560;9.714;2023-05-07T01:31:14;35.93;;;33.33;;
10248;SDS011;5169;50.560;9.714;2023-05-07T01:33:41;41.03;;;37.83;;
10248;SDS011;5169;50.560;9.714;2023-05-07T01:36:12;41.90;;;38.53;;
10248;SDS011;5169;50.560;9.714;2023-05-07T01:38:39;39.60;;;36.50;;
10248;SDS011;5169;50.560;9.714;2023-05-07T01:41:06;39.30;;;36.23;;
10248;SDS011;5169;50.560;9.714;2023-05-07T01:43:32;31.57;;;29.20;;
10248;SDS011;5169;50.560;9.714;2023-05-07T01:45:58;31.27;;;28.97;;
10248;SDS011;5169;50.560;9.714;2023-05-07T01:48:24;38.13;;;35.17;;
10248;SDS011;5169;50.560;9.714;2023-05-07T01:50:51;37.20;;;34.37;;
10248;SDS011;5169;50.560;9.714;2023-05-07T01:53:17;34.43;;;31.73;;
10248;SDS011;5169;50.560;9.714;2023-05-07T01:55:42;27.60;;;25.70;;
10248;SDS011;5169;50.560;9.714;2023-05-07T01:58:08;30.63;;;28.40;;
10248;SDS011;5169;50.560;9.714;2023-05-07T02:00:36;33.30;;;30.83;;
10248;SDS011;5169;50.560;9.714;2023-05-07T02:03:04;33.07;;;30.73;;
10248;SDS011;5169;50.560;9.714;2023-05-07T02:05:31;26.23;;;24.33;;
10248;SDS011;5169;50.560;9.714;2023-05-07T02:07:59;26.23;;;24.50;;
10248;SDS011;5169;50.560;9.714;2023-05-07T02:10:27;32.50;;;30.13;;
10248;SDS011;5169;50.560;9.714;2023-05-07T02:12:52;30.23;;;28.10;;
10248;SDS011;5169;50.560;9.714;2023-05-07T02:15:21;35.03;;;32.50;;
10248;SDS011;5169;50.560;9.714;2023-05-07T02:17:59;29.57;;;27.57;;
10248;SDS011;5169;50.560;9.714;2023-05-07T02:20:28;40.10;;;36.73;;
10248;SDS011;5169;50.560;9.714;2023-05-07T02:22:54;35.87;;;33.20;;
10248;SDS011;5169;50.560;9.714;2023-05-07T02:25:19;31.10;;;28.80;;
10248;SDS011;5169;50.560;9.714;2023-05-07T02:27:45;40.57;;;37.43;;
10248;SDS011;5169;50.560;9.714;2023-05-07T02:30:10;35.67;;;32.97;;
10248;SDS011;5169;50.560;9.714;2023-05-07T02:32:39;37.87;;;34.90;;
10248;SDS011;5169;50.560;9.714;2023-05-07T02:35:04;38.97;;;36.00;;
10248;SDS011;5169;50.560;9.714;2023-05-07T02:37:33;36.90;;;34.07;;
10248;SDS011;5169;50.560;9.714;2023-05-07T02:39:58;40.67;;;37.03;;
10248;SDS011;5169;50.560;9.714;2023-05-07T02:42:24;39.47;;;36.43;;
10248;SDS011;5169;50.560;9.714;2023-05-07T02:44:50;38.33;;;35.33;;
10248;SDS011;5169;50.560;9.714;2023-05-07T02:47:15;38.47;;;35.23;;
10248;SDS011;5169;50.560;9.714;2023-05-07T02:49:41;45.40;;;41.57;;
10248;SDS011;5169;50.560;9.714;2023-05-07T02:52:08;46.40;;;42.47;;
10248;SDS011;5169;50.560;9.714;2023-05-07T02:54:34;46.37;;;42.30;;
10248;SDS011;5169;50.560;9.714;2023-05-07T02:56:59;42.17;;;38.80;;
10248;SDS011;5169;50.560;9.714;2023-05-07T02:59:26;43.37;;;39.87;;
10248;SDS011;5169;50.560;9.714;2023-05-07T03:01:54;41.50;;;38.07;;
10248;SDS011;5169;50.560;9.714;2023-05-07T03:04:19;37.70;;;34.70;;
10248;SDS011;5169;50.560;9.714;2023-05-07T03:06:49;34.87;;;32.00;;
10248;SDS011;5169;50.560;9.714;2023-05-07T03:09:15;34.00;;;31.37;;
10248;SDS011;5169;50.560;9.714;2023-05-07T03:11:41;39.93;;;36.77;;
10248;SDS011;5169;50.560;9.714;2023-05-07T03:14:07;33.97;;;31.47;;
10248;SDS011;5169;50.560;9.714;2023-05-07T03:16:32;41.73;;;38.30;;
10248;SDS011;5169;50.560;9.714;2023-05-07T03:18:58;41.23;;;37.87;;
10248;SDS011;5169;50.560;9.714;2023-05-07T03:21:28;34.93;;;32.17;;
10248;SDS011;5169;50.560;9.714;2023-05-07T03:23:54;44.77;;;41.10;;
10248;SDS011;5169;50.560;9.714;2023-05-07T03:26:22;43.93;;;40.23;;
10248;SDS011;5169;50.560;9.714;2023-05-07T03:28:53;41.43;;;37.97;;
10248;SDS011;5169;50.560;9.714;2023-05-07T03:31:21;41.73;;;38.33;;
10248;SDS011;5169;50.560;9.714;2023-05-07T03:33:52;41.17;;;37.83;;
10248;SDS011;5169;50.560;9.714;2023-05-07T03:36:19;38.53;;;35.50;;
10248;SDS011;5169;50.560;9.714;2023-05-07T03:38:45;41.13;;;37.80;;
10248;SDS011;5169;50.560;9.714;2023-05-07T03:41:11;40.80;;;37.50;;
10248;SDS011;5169;50.560;9.714;2023-05-07T03:43:39;44.20;;;40.33;;
10248;SDS011;5169;50.560;9.714;2023-05-07T03:46:05;44.40;;;40.57;;
10248;SDS011;5169;50.560;9.714;2023-05-07T03:48:31;40.50;;;37.07;;
10248;SDS011;5169;50.560;9.714;2023-05-07T03:50:57;39.43;;;36.10;;
10248;SDS011;5169;50.560;9.714;2023-05-07T03:53:23;36.40;;;33.47;;
10248;SDS011;5169;50.560;9.714;2023-05-07T03:55:49;36.83;;;33.67;;
10248;SDS011;5169;50.560;9.714;2023-05-07T03:58:14;37.77;;;34.53;;
10248;SDS011;5169;50.560;9.714;2023-05-07T04:00:40;34.70;;;32.00;;
10248;SDS011;5169;50.560;9.714;2023-05-07T04:03:06;38.17;;;35.10;;
10248;SDS011;5169;50.560;9.714;2023-05-07T04:05:34;40.43;;;37.10;;
10248;SDS011;5169;50.560;9.714;2023-05-07T04:08:02;43.60;;;39.73;;
10248;SDS011;5169;50.560;9.714;2023-05-07T04:10:28;39.07;;;35.93;;
10248;SDS011;5169;50.560;9.714;2023-05-07T04:12:54;43.60;;;39.90;;
10248;SDS011;5169;50.560;9.714;2023-05-07T04:15:23;39.77;;;36.27;;
10248;SDS011;5169;50.560;9.714;2023-05-07T04:17:48;38.80;;;35.37;;
10248;SDS011;5169;50.560;9.714;2023-05-07T04:20:15;35.07;;;32.27;;
10248;SDS011;5169;50.560;9.714;2023-05-07T04:22:43;37.50;;;34.33;;
10248;SDS011;5169;50.560;9.714;2023-05-07T04:25:09;33.77;;;31.17;;
10248;SDS011;5169;50.560;9.714;2023-05-07T04:27:37;35.37;;;32.40;;
10248;SDS011;5169;50.560;9.714;2023-05-07T04:30:07;40.13;;;36.70;;
10248;SDS011;5169;50.560;9.714;2023-05-07T04:32:36;38.73;;;35.40;;
10248;SDS011;5169;50.560;9.714;2023-05-07T04:35:02;40.37;;;36.93;;
10248;SDS011;5169;50.560;9.714;2023-05-07T04:37:32;41.80;;;38.23;;
10248;SDS011;5169;50.560;9.714;2023-05-07T04:40:00;36.07;;;33.13;;
10248;SDS011;5169;50.560;9.714;2023-05-07T04:42:26;41.40;;;37.90;;
10248;SDS011;5169;50.560;9.714;2023-05-07T04:44:52;41.23;;;37.53;;
10248;SDS011;5169;50.560;9.714;2023-05-07T04:47:18;37.13;;;34.10;;
10248;SDS011;5169;50.560;9.714;2023-05-07T04:49:44;34.13;;;31.43;;
10248;SDS011;5169;50.560;9.714;2023-05-07T04:52:10;41.80;;;38.30;;
10248;SDS011;5169;50.560;9.714;2023-05-07T04:54:35;39.63;;;36.40;;
10248;SDS011;5169;50.560;9.714;2023-05-07T04:57:03;39.47;;;36.10;;
10248;SDS011;5169;50.560;9.714;2023-05-07T04:59:33;44.00;;;39.93;;
10248;SDS011;5169;50.560;9.714;2023-05-07T05:01:59;43.70;;;39.83;;
10248;SDS011;5169;50.560;9.714;2023-05-07T05:04:24;39.03;;;35.57;;
10248;SDS011;5169;50.560;9.714;2023-05-07T05:06:50;40.73;;;37.20;;
10248;SDS011;5169;50.560;9.714;2023-05-07T05:09:18;42.00;;;38.47;;
10248;SDS011;5169;50.560;9.714;2023-05-07T05:11:44;42.00;;;38.37;;
10248;SDS011;5169;50.560;9.714;2023-05-07T05:14:09;36.17;;;32.83;;
10248;SDS011;5169;50.560;9.714;2023-05-07T05:16:35;37.83;;;34.43;;
10248;SDS011;5169;50.560;9.714;2023-05-07T05:19:07;42.67;;;38.83;;
10248;SDS011;5169;50.560;9.714;2023-05-07T05:21:33;42.13;;;38.30;;
10248;SDS011;5169;50.560;9.714;2023-05-07T05:23:58;41.63;;;37.97;;
10248;SDS011;5169;50.560;9.714;2023-05-07T05:26:26;39.93;;;36.37;;
10248;SDS011;5169;50.560;9.714;2023-05-07T05:28:58;36.13;;;33.00;;
10248;SDS011;5169;50.560;9.714;2023-05-07T05:31:23;43.73;;;39.73;;
10248;SDS011;5169;50.560;9.714;2023-05-07T05:33:49;43.97;;;39.90;;
10248;SDS011;5169;50.560;9.714;2023-05-07T05:36:14;40.23;;;36.70;;
10248;SDS011;5169;50.560;9.714;2023-05-07T05:38:47;38.27;;;34.93;;
10248;SDS011;5169;50.560;9.714;2023-05-07T05:41:13;41.87;;;38.03;;
10248;SDS011;5169;50.560;9.714;2023-05-07T05:43:38;299.77;;;111.17;;
10248;SDS011;5169;50.560;9.714;2023-05-07T05:46:11;273.77;;;104.67;;
10248;SDS011;5169;50.560;9.714;2023-05-07T05:48:37;288.80;;;107.43;;
10248;SDS011;5169;50.560;9.714;2023-05-07T05:51:02;291.10;;;104.37;;
10248;SDS011;5169;50.560;9.714;2023-05-07T05:53:28;304.77;;;109.63;;
10248;SDS011;5169;50.560;9.714;2023-05-07T05:56:00;308.93;;;107.77;;
10248;SDS011;5169;50.560;9.714;2023-05-07T05:58:25;306.40;;;109.03;;
10248;SDS011;5169;50.560;9.714;2023-05-07T06:00:51;310.97;;;107.93;;
10248;SDS011;5169;50.560;9.714;2023-05-07T06:03:21;305.83;;;105.57;;
10248;SDS011;5169;50.560;9.714;2023-05-07T06:05:49;252.63;;;101.77;;
10248;SDS011;5169;50.560;9.714;2023-05-07T06:08:25;257.27;;;99.07;;
10248;SDS011;5169;50.560;9.714;2023-05-07T06:10:59;249.77;;;100.63;;
10248;SDS011;5169;50.560;9.714;2023-05-07T06:13:38;261.53;;;100.63;;
10248;SDS011;5169;50.560;9.714;2023-05-07T06:16:11;272.70;;;105.17;;
10248;SDS011;5169;50.560;9.714;2023-05-07T06:18:46;278.83;;;103.90;;
10248;SDS011;5169;50.560;9.714;2023-05-07T06:21:13;280.63;;;103.37;;
10248;SDS011;5169;50.560;9.714;2023-05-07T06:23:39;285.40;;;108.63;;
10248;SDS011;5169;50.560;9.714;2023-05-07T06:26:09;290.97;;;110.13;;
10248;SDS011;5169;50.560;9.714;2023-05-07T06:28:34;288.33;;;110.47;;
10248;SDS011;5169;50.560;9.714;2023-05-07T06:31:14;277.40;;;106.20;;
10248;SDS011;5169;50.560;9.714;2023-05-07T06:33:48;273.10;;;104.13;;
10248;SDS011;5169;50.560;9.714;2023-05-07T06:36:14;280.43;;;105.17;;
10248;SDS011;5169;50.560;9.714;2023-05-07T06:38:39;286.10;;;107.37;;
10248;SDS011;5169;50.560;9.714;2023-05-07T06:41:13;286.23;;;106.93;;
10248;SDS011;5169;50.560;9.714;2023-05-07T06:43:47;273.57;;;105.87;;
10248;SDS011;5169;50.560;9.714;2023-05-07T06:46:14;280.07;;;106.50;;
10248;SDS011;5169;50.560;9.714;2023-05-07T06:48:47;278.93;;;111.40;;
10248;SDS011;5169;50.560;9.714;2023-05-07T06:51:13;279.03;;;113.27;;
10248;SDS011;5169;50.560;9.714;2023-05-07T06:53:41;278.60;;;106.20;;
10248;SDS011;5169;50.560;9.714;2023-05-07T06:56:09;278.50;;;106.80;;
10248;SDS011;5169;50.560;9.714;2023-05-07T06:58:37;277.53;;;106.90;;
10248;SDS011;5169;50.560;9.714;2023-05-07T07:01:05;275.40;;;110.07;;
10248;SDS011;5169;50.560;9.714;2023-05-07T07:03:33;277.13;;;109.13;;
10248;SDS011;5169;50.560;9.714;2023-05-07T07:06:01;278.47;;;112.97;;
10248;SDS011;5169;50.560;9.714;2023-05-07T07:08:28;256.20;;;110.23;;
10248;SDS011;5169;50.560;9.714;2023-05-07T07:10:53;258.43;;;113.57;;
10248;SDS011;5169;50.560;9.714;2023-05-07T07:13:22;262.23;;;109.00;;
10248;SDS011;5169;50.560;9.714;2023-05-07T07:15:47;261.43;;;104.30;;
10248;SDS011;5169;50.560;9.714;2023-05-07T07:18:13;271.87;;;113.10;;
10248;SDS011;5169;50.560;9.714;2023-05-07T07:20:39;280.60;;;114.83;;
10248;SDS011;5169;50.560;9.714;2023-05-07T07:23:12;278.47;;;117.07;;
10248;SDS011;5169;50.560;9.714;2023-05-07T07:25:38;271.20;;;113.87;;
10248;SDS011;5169;50.560;9.714;2023-05-07T07:28:04;290.20;;;119.63;;
10248;SDS011;5169;50.560;9.714;2023-05-07T07:30:38;283.27;;;115.13;;
10248;SDS011;5169;50.560;9.714;2023-05-07T07:33:06;282.43;;;115.97;;
10248;SDS011;5169;50.560;9.714;2023-05-07T07:35:37;287.23;;;122.70;;
10248;SDS011;5169;50.560;9.714;2023-05-07T07:38:03;275.20;;;121.63;;
10248;SDS011;5169;50.560;9.714;2023-05-07T07:40:35;275.03;;;123.37;;
10248;SDS011;5169;50.560;9.714;2023-05-07T07:43:01;267.20;;;126.43;;
10248;SDS011;5169;50.560;9.714;2023-05-07T07:45:29;271.73;;;132.60;;
10248;SDS011;5169;50.560;9.714;2023-05-07T07:47:58;266.97;;;136.10;;
10248;SDS011;5169;50.560;9.714;2023-05-07T07:50:26;277.40;;;138.37;;
10248;SDS011;5169;50.560;9.714;2023-05-07T07:52:52;272.53;;;138.67;;
10248;SDS011;5169;50.560;9.714;2023-05-07T07:55:19;277.57;;;138.13;;
10248;SDS011;5169;50.560;9.714;2023-05-07T07:57:52;266.50;;;138.77;;
10248;SDS011;5169;50.560;9.714;2023-05-07T08:00:17;275.00;;;138.07;;
10248;SDS011;5169;50.560;9.714;2023-05-07T08:02:43;266.60;;;131.53;;
10248;SDS011;5169;50.560;9.714;2023-05-07T08:05:17;264.87;;;131.97;;
10248;SDS011;5169;50.560;9.714;2023-05-07T08:07:42;261.40;;;134.13;;
10248;SDS011;5169;50.560;9.714;2023-05-07T08:10:11;258.70;;;133.10;;
10248;SDS011;5169;50.560;9.714;2023-05-07T08:12:37;275.57;;;140.93;;
10248;SDS011;5169;50.560;9.714;2023-05-07T08:15:02;266.93;;;148.77;;
10248;SDS011;5169;50.560;9.714;2023-05-07T08:17:28;274.27;;;159.67;;
10248;SDS011;5169;50.560;9.714;2023-05-07T08:19:54;264.20;;;161.13;;
10248;SDS011;5169;50.560;9.714;2023-05-07T08:22:19;276.17;;;166.80;;
10248;SDS011;5169;50.560;9.714;2023-05-07T08:24:51;271.70;;;165.43;;
10248;SDS011;5169;50.560;9.714;2023-05-07T08:27:18;269.90;;;171.50;;
10248;SDS011;5169;50.560;9.714;2023-05-07T08:29:43;269.63;;;171.10;;
10248;SDS011;5169;50.560;9.714;2023-05-07T08:32:15;272.73;;;170.63;;
10248;SDS011;5169;50.560;9.714;2023-05-07T08:34:40;265.87;;;165.43;;
10248;SDS011;5169;50.560;9.714;2023-05-07T08:37:06;272.63;;;165.77;;
10248;SDS011;5169;50.560;9.714;2023-05-07T08:39:38;264.40;;;164.87;;
10248;SDS011;5169;50.560;9.714;2023-05-07T08:42:06;274.23;;;158.40;;
10248;SDS011;5169;50.560;9.714;2023-05-07T08:44:36;276.33;;;160.23;;
10248;SDS011;5169;50.560;9.714;2023-05-07T08:47:06;254.23;;;167.80;;
10248;SDS011;5169;50.560;9.714;2023-05-07T08:49:36;280.73;;;180.07;;
10248;SDS011;5169;50.560;9.714;2023-05-07T08:52:01;282.07;;;184.87;;
10248;SDS011;5169;50.560;9.714;2023-05-07T08:54:27;281.13;;;192.93;;
10248;SDS011;5169;50.560;9.714;2023-05-07T08:56:54;293.93;;;192.50;;
10248;SDS011;5169;50.560;9.714;2023-05-07T08:59:29;286.33;;;193.23;;
10248;SDS011;5169;50.560;9.714;2023-05-07T09:01:54;292.87;;;197.83;;
10248;SDS011;5169;50.560;9.714;2023-05-07T09:04:23;299.30;;;208.97;;
10248;SDS011;5169;50.560;9.714;2023-05-07T09:06:49;294.73;;;219.70;;
10248;SDS011;5169;50.560;9.714;2023-05-07T09:09:16;296.23;;;229.77;;
10248;SDS011;5169;50.560;9.714;2023-05-07T09:11:43;296.80;;;221.73;;
10248;SDS011;5169;50.560;9.714;2023-05-07T09:14:24;303.27;;;210.40;;
10248;SDS011;5169;50.560;9.714;2023-05-07T09:16:52;290.67;;;213.80;;
10248;SDS011;5169;50.560;9.714;2023-05-07T09:19:26;288.77;;;219.40;;
10248;SDS011;5169;50.560;9.714;2023-05-07T09:22:01;295.07;;;219.87;;
10248;SDS011;5169;50.560;9.714;2023-05-07T09:24:29;289.93;;;230.00;;
10248;SDS011;5169;50.560;9.714;2023-05-07T09:27:02;291.93;;;233.63;;
10248;SDS011;5169;50.560;9.714;2023-05-07T09:29:30;286.47;;;244.07;;
10248;SDS011;5169;50.560;9.714;2023-05-07T09:34:54;291.23;;;221.60;;
10248;SDS011;5169;50.560;9.714;2023-05-07T09:37:28;294.00;;;218.97;;
10248;SDS011;5169;50.560;9.714;2023-05-07T09:39:59;300.53;;;218.40;;
10248;SDS011;5169;50.560;9.714;2023-05-07T09:42:28;285.37;;;226.23;;
10248;SDS011;5169;50.560;9.714;2023-05-07T09:45:04;284.90;;;211.23;;
10248;SDS011;5169;50.560;9.714;2023-05-07T09:47:32;293.13;;;220.67;;
10248;SDS011;5169;50.560;9.714;2023-05-07T09:50:02;289.97;;;223.00;;
10248;SDS011;5169;50.560;9.714;2023-05-07T09:52:39;286.73;;;212.97;;
10248;SDS011;5169;50.560;9.714;2023-05-07T09:55:11;288.00;;;216.77;;
10248;SDS011;5169;50.560;9.714;2023-05-07T09:57:37;289.67;;;222.53;;
10248;SDS011;5169;50.560;9.714;2023-05-07T10:00:05;289.47;;;216.13;;
10248;SDS011;5169;50.560;9.714;2023-05-07T10:02:37;294.53;;;236.93;;
10248;SDS011;5169;50.560;9.714;2023-05-07T10:05:12;290.27;;;232.97;;
10248;SDS011;5169;50.560;9.714;2023-05-07T10:07:39;289.97;;;231.03;;
10248;SDS011;5169;50.560;9.714;2023-05-07T10:10:05;285.13;;;228.83;;
10248;SDS011;5169;50.560;9.714;2023-05-07T10:12:39;281.70;;;232.43;;
10248;SDS011;5169;50.560;9.714;2023-05-07T10:15:06;275.93;;;224.77;;
10248;SDS011;5169;50.560;9.714;2023-05-07T10:17:39;276.47;;;244.57;;
10248;SDS011;5169;50.560;9.714;2023-05-07T10:20:06;285.30;;;254.77;;
10248;SDS011;5169;50.560;9.714;2023-05-07T10:22:43;279.77;;;256.40;;
10248;SDS011;5169;50.560;9.714;2023-05-07T10:25:26;291.63;;;267.07;;
10248;SDS011;5169;50.560;9.714;2023-05-07T10:28:03;285.67;;;260.53;;
10248;SDS011;5169;50.560;9.714;2023-05-07T10:30:45;268.77;;;245.60;;
10248;SDS011;5169;50.560;9.714;2023-05-07T10:33:31;292.73;;;269.43;;
10248;SDS011;5169;50.560;9.714;2023-05-07T10:36:02;299.27;;;276.30;;
10248;SDS011;5169;50.560;9.714;2023-05-07T10:38:30;316.93;;;294.17;;
10248;SDS011;5169;50.560;9.714;2023-05-07T10:41:02;327.37;;;304.57;;
10248;SDS011;5169;50.560;9.714;2023-05-07T10:43:40;269.25;;;250.75;;
10248;SDS011;5169;50.560;9.714;2023-05-07T10:46:18;252.80;;;236.35;;
10248;SDS011;5169;50.560;9.714;2023-05-07T10:51:31;267.27;;;249.65;;
10248;SDS011;5169;50.560;9.714;2023-05-07T10:56:38;258.05;;;241.60;;
10248;SDS011;5169;50.560;9.714;2023-05-07T11:01:57;297.25;;;277.55;;
10248;SDS011;5169;50.560;9.714;2023-05-07T11:04:40;281.50;;;263.65;;
10248;SDS011;5169;50.560;9.714;2023-05-07T11:15:09;291.15;;;272.00;;
10248;SDS011;5169;50.560;9.714;2023-05-07T11:20:45;276.08;;;258.60;;
10248;SDS011;5169;50.560;9.714;2023-05-07T11:26:09;257.75;;;242.40;;
10248;SDS011;5169;50.560;9.714;2023-05-07T11:28:40;276.33;;;259.10;;
10248;SDS011;5169;50.560;9.714;2023-05-07T11:31:07;248.90;;;233.32;;
10248;SDS011;5169;50.560;9.714;2023-05-07T11:33:33;244.75;;;230.48;;
10248;SDS011;5169;50.560;9.714;2023-05-07T11:36:03;233.05;;;219.75;;
10248;SDS011;5169;50.560;9.714;2023-05-07T11:38:29;249.65;;;235.55;;
10248;SDS011;5169;50.560;9.714;2023-05-07T11:40:56;227.43;;;214.38;;
10248;SDS011;5169;50.560;9.714;2023-05-07T11:43:29;216.57;;;204.60;;
10248;SDS011;5169;50.560;9.714;2023-05-07T11:46:10;240.07;;;226.50;;
10248;SDS011;5169;50.560;9.714;2023-05-07T11:48:41;256.02;;;241.40;;
10248;SDS011;5169;50.560;9.714;2023-05-07T11:51:08;208.15;;;196.63;;
10248;SDS011;5169;50.560;9.714;2023-05-07T11:53:39;212.35;;;200.25;;
10248;SDS011;5169;50.560;9.714;2023-05-07T11:56:09;226.57;;;213.75;;
10248;SDS011;5169;50.560;9.714;2023-05-07T11:58:41;240.18;;;226.27;;
10248;SDS011;5169;50.560;9.714;2023-05-07T12:01:11;221.88;;;209.25;;
10248;SDS011;5169;50.560;9.714;2023-05-07T12:03:41;226.43;;;213.82;;
10248;SDS011;5169;50.560;9.714;2023-05-07T12:06:09;240.27;;;226.68;;
10248;SDS011;5169;50.560;9.714;2023-05-07T12:08:40;241.07;;;227.77;;
10248;SDS011;5169;50.560;9.714;2023-05-07T12:11:07;234.63;;;221.38;;
10248;SDS011;5169;50.560;9.714;2023-05-07T12:13:53;226.38;;;213.60;;
10248;SDS011;5169;50.560;9.714;2023-05-07T12:16:20;217.55;;;205.60;;
10248;SDS011;5169;50.560;9.714;2023-05-07T12:18:46;232.65;;;219.70;;
10248;SDS011;5169;50.560;9.714;2023-05-07T12:21:21;222.43;;;210.25;;
10248;SDS011;5169;50.560;9.714;2023-05-07T12:23:47;244.63;;;230.98;;
10248;SDS011;5169;50.560;9.714;2023-05-07T12:26:16;246.63;;;232.68;;
10248;SDS011;5169;50.560;9.714;2023-05-07T12:28:42;226.32;;;213.93;;
10248;SDS011;5169;50.560;9.714;2023-05-07T12:31:09;245.73;;;231.75;;
10248;SDS011;5169;50.560;9.714;2023-05-07T12:33:39;292.13;;;274.67;;
10248;SDS011;5169;50.560;9.714;2023-05-07T12:36:07;284.25;;;267.33;;
10248;SDS011;5169;50.560;9.714;2023-05-07T12:38:39;267.73;;;251.70;;
10248;SDS011;5169;50.560;9.714;2023-05-07T12:41:06;259.95;;;244.65;;
10248;SDS011;5169;50.560;9.714;2023-05-07T12:43:33;251.95;;;237.15;;
10248;SDS011;5169;50.560;9.714;2023-05-07T12:46:00;246.48;;;231.90;;
10248;SDS011;5169;50.560;9.714;2023-05-07T12:48:30;237.57;;;223.38;;
10248;SDS011;5169;50.560;9.714;2023-05-07T12:50:59;266.50;;;250.15;;
10248;SDS011;5169;50.560;9.714;2023-05-07T12:53:25;275.35;;;258.27;;
10248;SDS011;5169;50.560;9.714;2023-05-07T12:55:56;259.50;;;243.23;;
10248;SDS011;5169;50.560;9.714;2023-05-07T12:58:29;291.07;;;272.40;;
10248;SDS011;5169;50.560;9.714;2023-05-07T13:00:58;274.17;;;256.93;;
10248;SDS011;5169;50.560;9.714;2023-05-07T13:03:31;262.87;;;245.93;;
10248;SDS011;5169;50.560;9.714;2023-05-07T13:06:08;278.00;;;259.10;;
10248;SDS011;5169;50.560;9.714;2023-05-07T13:08:42;280.60;;;261.43;;
10248;SDS011;5169;50.560;9.714;2023-05-07T13:11:08;289.97;;;269.63;;
10248;SDS011;5169;50.560;9.714;2023-05-07T13:13:35;289.10;;;269.37;;
10248;SDS011;5169;50.560;9.714;2023-05-07T13:16:06;279.97;;;260.93;;
10248;SDS011;5169;50.560;9.714;2023-05-07T13:18:32;301.73;;;280.00;;
10248;SDS011;5169;50.560;9.714;2023-05-07T13:20:59;295.70;;;274.17;;
10248;SDS011;5169;50.560;9.714;2023-05-07T13:23:25;287.03;;;266.47;;
10248;SDS011;5169;50.560;9.714;2023-05-07T13:25:55;295.00;;;273.90;;
10248;SDS011;5169;50.560;9.714;2023-05-07T13:28:27;286.27;;;265.73;;
10248;SDS011;5169;50.560;9.714;2023-05-07T13:30:53;301.90;;;279.63;;
10248;SDS011;5169;50.560;9.714;2023-05-07T13:33:25;293.50;;;271.70;;
10248;SDS011;5169;50.560;9.714;2023-05-07T13:35:51;279.60;;;259.27;;
10248;SDS011;5169;50.560;9.714;2023-05-07T13:38:17;274.23;;;254.67;;
10248;SDS011;5169;50.560;9.714;2023-05-07T13:40:43;278.77;;;259.03;;
10248;SDS011;5169;50.560;9.714;2023-05-07T13:43:16;284.13;;;264.37;;
10248;SDS011;5169;50.560;9.714;2023-05-07T13:45:43;286.73;;;266.77;;
10248;SDS011;5169;50.560;9.714;2023-05-07T13:48:15;288.63;;;268.33;;
10248;SDS011;5169;50.560;9.714;2023-05-07T13:50:43;283.47;;;263.53;;
10248;SDS011;5169;50.560;9.714;2023-05-07T13:53:10;282.10;;;262.80;;
10248;SDS011;5169;50.560;9.714;2023-05-07T13:55:39;287.60;;;267.87;;
10248;SDS011;5169;50.560;9.714;2023-05-07T13:58:05;267.07;;;248.67;;
10248;SDS011;5169;50.560;9.714;2023-05-07T14:00:30;279.13;;;259.13;;
10248;SDS011;5169;50.560;9.714;2023-05-07T14:02:56;277.50;;;257.80;;
10248;SDS011;5169;50.560;9.714;2023-05-07T14:05:27;292.60;;;271.50;;
10248;SDS011;5169;50.560;9.714;2023-05-07T14:07:53;243.53;;;227.17;;
10248;SDS011;5169;50.560;9.714;2023-05-07T14:10:19;242.30;;;225.70;;
10248;SDS011;5169;50.560;9.714;2023-05-07T14:12:47;255.80;;;237.60;;
10248;SDS011;5169;50.560;9.714;2023-05-07T14:15:13;218.00;;;203.03;;
10248;SDS011;5169;50.560;9.714;2023-05-07T14:17:39;232.17;;;216.50;;
10248;SDS011;5169;50.560;9.714;2023-05-07T14:20:05;246.23;;;229.33;;
10248;SDS011;5169;50.560;9.714;2023-05-07T14:22:35;254.00;;;236.10;;
10248;SDS011;5169;50.560;9.714;2023-05-07T14:25:01;246.60;;;229.60;;
10248;SDS011;5169;50.560;9.714;2023-05-07T14:27:28;250.10;;;232.53;;
10248;SDS011;5169;50.560;9.714;2023-05-07T14:29:54;244.33;;;227.63;;
10248;SDS011;5169;50.560;9.714;2023-05-07T14:32:23;260.13;;;242.10;;
10248;SDS011;5169;50.560;9.714;2023-05-07T14:34:49;255.00;;;236.67;;
10248;SDS011;5169;50.560;9.714;2023-05-07T14:37:15;240.97;;;224.23;;
10248;SDS011;5169;50.560;9.714;2023-05-07T14:39:40;224.60;;;209.27;;
10248;SDS011;5169;50.560;9.714;2023-05-07T14:42:11;240.10;;;223.33;;
10248;SDS011;5169;50.560;9.714;2023-05-07T14:44:37;242.87;;;226.03;;
10248;SDS011;5169;50.560;9.714;2023-05-07T14:47:13;241.87;;;225.03;;
10248;SDS011;5169;50.560;9.714;2023-05-07T14:49:38;249.67;;;231.90;;